createdAt,value
2023-02-13T00:00:38.440Z,15.48
2023-02-13T00:01:41.128Z,14.50
2023-02-13T00:02:43.664Z,16.00
2023-02-13T00:03:46.167Z,12.93
2023-02-13T00:04:48.964Z,13.15
2023-02-13T00:05:51.463Z,12.98
2023-02-13T00:06:54.033Z,12.88
2023-02-13T00:07:57.373Z,13.65
2023-02-13T00:08:59.961Z,12.93
2023-02-13T00:10:02.411Z,11.48
2023-02-13T00:11:05.235Z,11.50
2023-02-13T00:12:08.557Z,12.93
2023-02-13T00:13:11.028Z,12.50
2023-02-13T00:14:13.930Z,13.30
2023-02-13T00:15:16.587Z,12.13
2023-02-13T00:16:19.061Z,12.32
2023-02-13T00:17:21.576Z,12.27
2023-02-13T00:18:24.364Z,12.25
2023-02-13T00:19:26.909Z,10.95
2023-02-13T00:20:29.361Z,11.93
2023-02-13T00:21:31.863Z,12.23
2023-02-13T00:22:37.884Z,12.63
2023-02-13T00:23:40.578Z,14.45
2023-02-13T00:24:43.743Z,12.80
2023-02-13T00:25:46.146Z,14.40
2023-02-13T00:26:48.753Z,13.20
2023-02-13T00:27:53.984Z,12.00
2023-02-13T00:28:57.487Z,11.18
2023-02-13T00:30:00.549Z,13.25
2023-02-13T00:31:07.794Z,12.15
2023-02-13T00:32:12.695Z,11.10
2023-02-13T00:33:15.498Z,10.93
2023-02-13T00:34:18.002Z,12.93
2023-02-13T00:35:20.494Z,12.32
2023-02-13T00:36:23.673Z,10.52
2023-02-13T00:37:27.126Z,11.15
2023-02-13T00:38:30.853Z,11.10
2023-02-13T00:39:33.400Z,11.63
2023-02-13T00:40:35.918Z,10.95
2023-02-13T00:41:39.382Z,12.45
2023-02-13T00:42:41.914Z,11.05
2023-02-13T00:43:45.547Z,10.82
2023-02-13T00:44:48.197Z,11.38
2023-02-13T00:45:53.441Z,10.95
2023-02-13T00:46:55.896Z,10.82
2023-02-13T00:47:59.507Z,11.52
2023-02-13T00:49:02.124Z,10.48
2023-02-13T00:50:05.424Z,12.25
2023-02-13T00:51:08.520Z,10.90
2023-02-13T00:52:11.114Z,11.25
2023-02-13T00:53:13.911Z,10.88
2023-02-13T00:54:16.430Z,10.27
2023-02-13T00:55:19.751Z,10.40
2023-02-13T00:56:22.598Z,10.63
2023-02-13T00:57:25.171Z,9.98
2023-02-13T00:58:27.802Z,10.85
2023-02-13T00:59:30.483Z,10.52
2023-02-13T01:00:33.050Z,10.63
2023-02-13T01:01:35.575Z,10.80
2023-02-13T01:02:38.441Z,10.88
2023-02-13T01:03:41.176Z,11.43
2023-02-13T01:04:43.861Z,11.38
2023-02-13T01:05:46.842Z,11.65
2023-02-13T01:06:49.203Z,11.00
2023-02-13T01:07:52.574Z,10.32
2023-02-13T01:08:55.164Z,10.45
2023-02-13T01:09:57.925Z,10.93
2023-02-13T01:11:02.636Z,9.48
2023-02-13T01:12:05.307Z,10.05
2023-02-13T01:13:08.497Z,10.20
2023-02-13T01:14:11.416Z,10.27
2023-02-13T01:15:14.046Z,9.55
2023-02-13T01:16:18.067Z,10.00
2023-02-13T01:17:20.668Z,10.07
2023-02-13T01:18:23.386Z,9.70
2023-02-13T01:19:25.954Z,10.30
2023-02-13T01:20:29.904Z,10.20
2023-02-13T01:21:32.407Z,8.90
2023-02-13T01:22:35.168Z,9.27
2023-02-13T01:23:38.524Z,10.32
2023-02-13T01:24:41.226Z,8.68
2023-02-13T01:25:44.074Z,8.60
2023-02-13T01:26:46.610Z,8.63
2023-02-13T01:27:49.216Z,8.63
2023-02-13T01:28:54.877Z,8.60
2023-02-13T01:29:57.422Z,9.82
2023-02-13T01:31:00.701Z,8.35
2023-02-13T01:32:05.153Z,9.43
2023-02-13T01:33:07.828Z,7.93
2023-02-13T01:34:10.332Z,9.25
2023-02-13T01:35:13.894Z,9.02
2023-02-13T01:36:16.862Z,9.52
2023-02-13T01:37:19.568Z,8.45
2023-02-13T01:38:22.180Z,8.15
2023-02-13T01:39:24.651Z,9.20
2023-02-13T01:40:30.012Z,8.68
2023-02-13T01:41:33.008Z,9.05
2023-02-13T01:42:36.310Z,8.25
2023-02-13T01:43:52.182Z,9.07
2023-02-13T01:45:04.707Z,8.27
2023-02-13T01:46:07.302Z,7.90
2023-02-13T01:47:11.253Z,8.95
2023-02-13T01:48:19.263Z,8.23
2023-02-13T01:49:24.841Z,8.68
2023-02-13T01:51:02.906Z,10.20
2023-02-13T01:52:05.682Z,8.50
2023-02-13T01:53:48.116Z,7.68
2023-02-13T01:54:51.070Z,7.93
2023-02-13T01:56:00.698Z,7.70
2023-02-13T01:57:10.560Z,7.95
2023-02-13T01:58:18.617Z,8.10
2023-02-13T01:59:31.666Z,7.35
2023-02-13T02:00:35.237Z,7.07
2023-02-13T02:01:38.143Z,7.57
2023-02-13T02:02:49.782Z,7.88
2023-02-13T02:04:01.060Z,8.27
2023-02-13T02:05:09.088Z,7.20
2023-02-13T02:06:17.424Z,6.95
2023-02-13T02:07:30.043Z,7.32
2023-02-13T02:08:37.388Z,7.60
2023-02-13T02:09:42.295Z,8.23
2023-02-13T02:10:44.944Z,7.55
2023-02-13T02:12:03.449Z,7.35
2023-02-13T02:13:18.591Z,7.90
2023-02-13T02:14:21.337Z,7.38
2023-02-13T02:15:23.925Z,7.15
2023-02-13T02:16:27.167Z,6.75
2023-02-13T02:17:29.688Z,7.40
2023-02-13T02:18:32.401Z,7.65
2023-02-13T02:19:59.477Z,7.70
2023-02-13T02:21:09.684Z,6.90
2023-02-13T02:22:23.592Z,7.97
2023-02-13T02:23:28.817Z,8.82
2023-02-13T02:24:54.714Z,7.88
2023-02-13T02:26:09.060Z,6.95
2023-02-13T02:27:38.131Z,7.82
2023-02-13T02:28:49.471Z,8.02
2023-02-13T02:30:28.163Z,8.35
2023-02-13T02:32:08.328Z,7.00
2023-02-13T02:33:19.676Z,7.53
2023-02-13T02:34:53.435Z,6.78
2023-02-13T02:36:16.841Z,6.88
2023-02-13T02:37:28.188Z,7.25
2023-02-13T02:38:58.408Z,6.50
2023-02-13T02:40:23.085Z,7.28
2023-02-13T02:42:07.174Z,7.75
2023-02-13T02:43:54.489Z,7.25
2023-02-13T02:45:10.830Z,8.38
2023-02-13T02:46:31.845Z,7.07
2023-02-13T02:48:03.082Z,7.47
2023-02-13T02:49:26.974Z,7.57
2023-02-13T02:50:41.687Z,7.20
2023-02-13T02:52:19.283Z,7.32
2023-02-13T02:53:52.116Z,6.38
2023-02-13T02:55:09.151Z,6.45
2023-02-13T02:56:25.806Z,7.28
2023-02-13T02:57:51.414Z,7.10
2023-02-13T02:59:19.665Z,6.70
2023-02-13T03:00:42.791Z,6.85
2023-02-13T03:02:04.283Z,7.03
2023-02-13T03:03:37.472Z,7.28
2023-02-13T03:05:05.905Z,8.05
2023-02-13T03:06:17.428Z,7.13
2023-02-13T03:07:20.674Z,7.28
2023-02-13T03:08:43.354Z,7.55
2023-02-13T03:10:28.217Z,6.65
2023-02-13T03:11:49.660Z,8.10
2023-02-13T03:13:16.530Z,6.25
2023-02-13T03:14:21.074Z,6.85
2023-02-13T03:15:26.375Z,7.18
2023-02-13T03:16:47.582Z,8.23
2023-02-13T03:18:08.547Z,7.60
2023-02-13T03:21:27.651Z,6.25
2023-02-13T03:23:07.162Z,7.13
2023-02-13T03:24:30.798Z,6.97
2023-02-13T03:25:54.077Z,7.60
2023-02-13T03:27:04.217Z,7.53
2023-02-13T03:28:50.333Z,7.60
2023-02-13T03:30:10.039Z,7.10
2023-02-13T03:31:21.054Z,7.03
2023-02-13T03:32:28.516Z,7.35
2023-02-13T03:33:40.769Z,7.90
2023-02-13T03:35:08.567Z,6.90
2023-02-13T03:36:53.463Z,7.75
2023-02-13T03:38:01.154Z,6.95
2023-02-13T03:39:13.096Z,7.38
2023-02-13T03:40:35.301Z,7.35
2023-02-13T03:41:42.318Z,7.38
2023-02-13T03:43:08.408Z,7.15
2023-02-13T03:44:27.992Z,7.93
2023-02-13T03:45:58.218Z,7.57
2023-02-13T03:47:02.646Z,7.13
2023-02-13T03:48:32.068Z,7.82
2023-02-13T03:50:06.599Z,7.28
2023-02-13T03:51:11.161Z,7.25
2023-02-13T03:52:45.489Z,7.82
2023-02-13T03:53:50.509Z,7.93
2023-02-13T03:55:14.335Z,7.30
2023-02-13T03:56:37.862Z,6.85
2023-02-13T03:58:00.953Z,7.95
2023-02-13T03:59:17.298Z,8.05
2023-02-13T04:00:21.307Z,7.25
2023-02-13T04:01:28.141Z,7.30
2023-02-13T04:02:34.484Z,8.68
2023-02-13T04:03:51.416Z,7.43
2023-02-13T04:05:27.711Z,8.75
2023-02-13T04:06:56.529Z,8.75
2023-02-13T04:07:59.623Z,7.53
2023-02-13T04:09:02.225Z,9.40
2023-02-13T04:10:10.410Z,8.00
2023-02-13T04:11:23.823Z,8.23
2023-02-13T04:12:39.722Z,8.40
2023-02-13T04:14:03.771Z,8.55
2023-02-13T04:15:19.096Z,7.38
2023-02-13T04:16:40.142Z,7.80
2023-02-13T04:17:52.347Z,7.13
2023-02-13T04:18:55.607Z,7.82
2023-02-13T04:19:58.100Z,7.70
2023-02-13T04:21:05.346Z,7.25
2023-02-13T04:22:07.890Z,7.28
2023-02-13T04:23:11.736Z,8.23
2023-02-13T04:24:14.181Z,7.70
2023-02-13T04:25:18.104Z,7.38
2023-02-13T04:26:22.890Z,8.05
2023-02-13T04:27:27.370Z,8.02
2023-02-13T04:28:30.086Z,8.20
2023-02-13T04:29:32.621Z,8.00
2023-02-13T04:30:35.157Z,8.50
2023-02-13T04:31:37.746Z,8.07
2023-02-13T04:32:40.327Z,8.90
2023-02-13T04:33:42.828Z,7.80
2023-02-13T04:34:45.299Z,7.60
2023-02-13T04:35:47.879Z,8.88
2023-02-13T04:36:50.423Z,8.75
2023-02-13T04:37:52.995Z,7.97
2023-02-13T04:38:55.558Z,8.18
2023-02-13T04:39:58.102Z,7.43
2023-02-13T04:41:00.925Z,7.95
2023-02-13T04:42:03.705Z,8.13
2023-02-13T04:43:06.340Z,6.90
2023-02-13T04:44:08.901Z,7.68
2023-02-13T04:45:11.510Z,8.45
2023-02-13T04:46:14.166Z,9.70
2023-02-13T04:47:16.762Z,8.23
2023-02-13T04:48:19.263Z,8.93
2023-02-13T04:49:21.652Z,7.90
2023-02-13T04:50:24.896Z,8.02
2023-02-13T04:51:27.620Z,8.38
2023-02-13T04:52:30.147Z,7.97
2023-02-13T04:53:32.627Z,8.55
2023-02-13T04:54:35.079Z,7.93
2023-02-13T04:55:37.520Z,9.40
2023-02-13T04:56:40.141Z,9.27
2023-02-13T04:57:42.803Z,8.77
2023-02-13T04:58:45.256Z,9.18
2023-02-13T04:59:47.809Z,8.43
2023-02-13T05:00:50.450Z,9.05
2023-02-13T05:01:53.092Z,9.50
2023-02-13T05:03:10.675Z,9.38
2023-02-13T05:04:16.576Z,9.15
2023-02-13T05:05:19.681Z,8.57
2023-02-13T05:06:22.275Z,8.88
2023-02-13T05:07:24.683Z,7.55
2023-02-13T05:08:27.192Z,7.57
2023-02-13T05:09:29.691Z,7.20
2023-02-13T05:10:32.236Z,8.27
2023-02-13T05:11:34.932Z,7.82
2023-02-13T05:12:37.593Z,9.20
2023-02-13T05:13:40.450Z,7.63
2023-02-13T05:14:42.917Z,8.30
2023-02-13T05:15:45.418Z,8.77
2023-02-13T05:16:49.802Z,8.57
2023-02-13T05:17:52.485Z,8.45
2023-02-13T05:18:55.129Z,9.35
2023-02-13T05:19:59.234Z,8.55
2023-02-13T05:21:20.413Z,9.50
2023-02-13T05:22:41.368Z,11.07
2023-02-13T05:24:46.245Z,8.35
2023-02-13T05:25:48.852Z,9.85
2023-02-13T05:26:51.415Z,10.50
2023-02-13T05:27:54.039Z,10.35
2023-02-13T05:29:35.117Z,11.68
2023-02-13T05:30:39.204Z,12.95
2023-02-13T05:31:41.919Z,9.40
2023-02-13T05:32:44.544Z,11.13
2023-02-13T05:33:47.047Z,10.25
2023-02-13T05:34:49.783Z,9.40
2023-02-13T05:35:52.280Z,9.10
2023-02-13T05:36:58.305Z,9.43
2023-02-13T05:38:00.798Z,8.85
2023-02-13T05:39:03.394Z,9.10
2023-02-13T05:40:06.429Z,8.65
2023-02-13T05:41:08.904Z,8.23
2023-02-13T05:42:11.501Z,8.50
2023-02-13T05:43:14.047Z,8.93
2023-02-13T05:44:17.397Z,8.68
2023-02-13T05:45:20.056Z,8.23
2023-02-13T05:46:22.626Z,8.70
2023-02-13T05:47:25.166Z,8.05
2023-02-13T05:48:27.665Z,8.60
2023-02-13T05:49:30.219Z,7.25
2023-02-13T05:50:32.760Z,7.78
2023-02-13T05:51:35.779Z,7.93
2023-02-13T05:52:38.386Z,7.32
2023-02-13T05:53:41.069Z,8.93
2023-02-13T05:54:43.815Z,8.35
2023-02-13T05:55:47.112Z,8.73
2023-02-13T05:56:49.609Z,7.57
2023-02-13T05:57:57.052Z,8.02
2023-02-13T05:58:59.563Z,8.15
2023-02-13T06:00:02.204Z,7.07
2023-02-13T06:01:07.968Z,7.07
2023-02-13T06:02:10.576Z,8.27
2023-02-13T06:03:13.257Z,7.68
2023-02-13T06:04:15.700Z,7.28
2023-02-13T06:05:18.264Z,7.63
2023-02-13T06:06:21.799Z,8.43
2023-02-13T06:07:24.332Z,7.68
2023-02-13T06:08:26.980Z,8.25
2023-02-13T06:09:29.532Z,7.97
2023-02-13T06:10:32.238Z,7.30
2023-02-13T06:11:34.771Z,6.93
2023-02-13T06:12:38.151Z,7.40
2023-02-13T06:13:40.932Z,7.28
2023-02-13T06:14:43.499Z,7.50
2023-02-13T06:15:46.075Z,7.75
2023-02-13T06:16:48.623Z,8.40
2023-02-13T06:17:51.336Z,8.32
2023-02-13T06:18:53.884Z,7.32
2023-02-13T06:19:56.776Z,7.10
2023-02-13T06:21:00.032Z,7.60
2023-02-13T06:22:02.720Z,7.18
2023-02-13T06:23:05.254Z,6.60
2023-02-13T06:24:08.405Z,7.22
2023-02-13T06:25:10.983Z,6.97
2023-02-13T06:26:13.608Z,7.50
2023-02-13T06:27:16.248Z,7.05
2023-02-13T06:28:18.790Z,7.45
2023-02-13T06:29:21.188Z,6.82
2023-02-13T06:30:23.942Z,7.72
2023-02-13T06:31:26.511Z,7.32
2023-02-13T06:32:29.073Z,7.78
2023-02-13T06:33:34.335Z,7.10
2023-02-13T06:34:36.754Z,6.70
2023-02-13T06:35:39.257Z,6.80
2023-02-13T06:36:42.732Z,7.20
2023-02-13T06:37:45.434Z,6.38
2023-02-13T06:38:48.033Z,7.00
2023-02-13T06:39:50.545Z,6.82
2023-02-13T06:40:53.094Z,7.10
2023-02-13T06:41:55.551Z,7.22
2023-02-13T06:42:58.008Z,6.95
2023-02-13T06:44:00.482Z,6.97
2023-02-13T06:45:03.292Z,7.28
2023-02-13T06:46:06.986Z,7.82
2023-02-13T06:47:09.711Z,7.05
2023-02-13T06:48:12.403Z,7.15
2023-02-13T06:49:14.955Z,7.53
2023-02-13T06:50:18.479Z,5.93
2023-02-13T06:51:21.022Z,7.65
2023-02-13T06:52:23.720Z,7.00
2023-02-13T06:53:26.281Z,7.30
2023-02-13T06:54:44.692Z,6.80
2023-02-13T06:55:48.689Z,6.50
2023-02-13T06:56:51.139Z,6.05
2023-02-13T06:57:53.730Z,6.05
2023-02-13T06:58:56.433Z,7.05
2023-02-13T07:00:05.866Z,7.07
2023-02-13T07:01:08.480Z,7.18
2023-02-13T07:02:14.254Z,8.43
2023-02-13T07:03:17.009Z,7.93
2023-02-13T07:04:19.544Z,7.80
2023-02-13T07:05:22.189Z,6.72
2023-02-13T07:06:24.761Z,7.72
2023-02-13T07:07:27.399Z,6.70
2023-02-13T07:08:30.879Z,7.03
2023-02-13T07:09:33.666Z,7.30
2023-02-13T07:10:38.769Z,6.65
2023-02-13T07:11:41.178Z,8.00
2023-02-13T07:12:44.643Z,6.78
2023-02-13T07:13:50.784Z,6.78
2023-02-13T07:14:53.323Z,8.63
2023-02-13T07:15:58.159Z,8.43
2023-02-13T07:17:00.656Z,8.55
2023-02-13T07:18:03.669Z,7.57
2023-02-13T07:19:06.234Z,7.88
2023-02-13T07:20:09.506Z,7.47
2023-02-13T07:21:12.080Z,6.80
2023-02-13T07:22:14.686Z,7.47
2023-02-13T07:23:17.149Z,8.02
2023-02-13T07:24:19.714Z,8.05
2023-02-13T07:25:22.255Z,6.93
2023-02-13T07:26:26.639Z,8.88
2023-02-13T07:27:29.587Z,7.90
2023-02-13T07:28:32.296Z,7.75
2023-02-13T07:29:34.819Z,8.48
2023-02-13T07:30:37.355Z,7.22
2023-02-13T07:31:40.174Z,7.28
2023-02-13T07:32:42.918Z,6.90
2023-02-13T07:33:48.394Z,6.50
2023-02-13T07:35:01.331Z,6.65
2023-02-13T07:36:05.464Z,6.78
2023-02-13T07:37:08.056Z,7.07
2023-02-13T07:38:10.625Z,7.22
2023-02-13T07:39:13.123Z,7.75
2023-02-13T07:40:15.752Z,7.15
2023-02-13T07:41:18.290Z,7.25
2023-02-13T07:42:21.092Z,6.53
2023-02-13T07:43:25.140Z,7.93
2023-02-13T07:44:27.607Z,6.90
2023-02-13T07:45:30.436Z,7.18
2023-02-13T07:46:32.931Z,6.97
2023-02-13T07:47:35.586Z,7.60
2023-02-13T07:48:38.124Z,7.13
2023-02-13T07:49:40.517Z,7.38
2023-02-13T07:50:43.092Z,8.02
2023-02-13T07:51:45.576Z,8.05
2023-02-13T07:53:14.250Z,7.97
2023-02-13T07:54:16.863Z,6.95
2023-02-13T07:55:19.309Z,7.63
2023-02-13T07:56:22.235Z,6.40
2023-02-13T07:57:24.889Z,6.47
2023-02-13T07:58:27.396Z,6.75
2023-02-13T07:59:29.879Z,6.65
2023-02-13T08:00:32.437Z,6.18
2023-02-13T08:01:34.998Z,6.97
2023-02-13T08:02:37.530Z,6.45
2023-02-13T08:03:40.231Z,5.72
2023-02-13T08:04:46.497Z,7.63
2023-02-13T08:05:49.614Z,5.88
2023-02-13T08:06:52.204Z,6.70
2023-02-13T08:07:55.134Z,6.28
2023-02-13T08:09:16.445Z,5.85
2023-02-13T08:10:37.840Z,6.07
2023-02-13T08:11:55.360Z,5.63
2023-02-13T08:12:57.866Z,6.55
2023-02-13T08:14:00.439Z,5.85
2023-02-13T08:15:04.083Z,6.20
2023-02-13T08:16:06.675Z,6.45
2023-02-13T08:17:10.080Z,5.95
2023-02-13T08:18:13.260Z,6.82
2023-02-13T08:19:15.884Z,5.85
2023-02-13T08:20:18.534Z,5.57
2023-02-13T08:21:21.052Z,6.07
2023-02-13T08:22:23.609Z,5.60
2023-02-13T08:23:26.255Z,5.72
2023-02-13T08:24:29.208Z,6.32
2023-02-13T08:25:31.737Z,7.05
2023-02-13T08:26:34.317Z,8.55
2023-02-13T08:27:36.838Z,7.25
2023-02-13T08:28:39.685Z,7.45
2023-02-13T08:29:42.206Z,8.32
2023-02-13T08:30:44.630Z,10.32
2023-02-13T08:31:47.179Z,8.73
2023-02-13T08:32:54.278Z,9.23
2023-02-13T08:33:57.676Z,8.55
2023-02-13T08:35:00.244Z,8.38
2023-02-13T08:36:06.961Z,9.07
2023-02-13T08:37:09.764Z,7.70
2023-02-13T08:38:12.282Z,8.45
2023-02-13T08:39:14.690Z,7.65
2023-02-13T08:40:17.265Z,6.57
2023-02-13T08:41:22.145Z,6.68
2023-02-13T08:42:24.709Z,5.82
2023-02-13T08:43:27.717Z,6.25
2023-02-13T08:44:30.409Z,8.38
2023-02-13T08:45:33.248Z,7.20
2023-02-13T08:46:35.851Z,6.43
2023-02-13T08:47:39.816Z,6.72
2023-02-13T08:48:42.404Z,6.95
2023-02-13T08:49:44.952Z,5.85
2023-02-13T08:50:47.477Z,5.45
2023-02-13T08:51:50.800Z,6.53
2023-02-13T08:52:53.952Z,6.57
2023-02-13T08:53:57.484Z,6.28
2023-02-13T08:54:59.911Z,6.20
2023-02-13T08:56:02.780Z,5.80
2023-02-13T08:57:05.236Z,5.75
2023-02-13T08:58:07.702Z,6.07
2023-02-13T08:59:10.585Z,6.47
2023-02-13T09:00:13.702Z,7.05
2023-02-13T09:01:16.606Z,7.13
2023-02-13T09:02:19.317Z,6.35
2023-02-13T09:03:21.819Z,6.93
2023-02-13T09:04:24.284Z,6.40
2023-02-13T09:05:27.298Z,6.93
2023-02-13T09:06:29.862Z,6.55
2023-02-13T09:07:32.567Z,6.95
2023-02-13T09:08:36.056Z,6.82
2023-02-13T09:09:38.775Z,5.60
2023-02-13T09:10:43.786Z,5.72
2023-02-13T09:11:46.265Z,7.80
2023-02-13T09:12:55.295Z,8.35
2023-02-13T09:13:57.906Z,10.02
2023-02-13T09:15:00.362Z,8.48
2023-02-13T09:16:07.741Z,7.22
2023-02-13T09:17:10.191Z,7.15
2023-02-13T09:18:12.720Z,6.95
2023-02-13T09:19:15.712Z,6.55
2023-02-13T09:20:18.317Z,5.85
2023-02-13T09:21:23.695Z,5.35
2023-02-13T09:22:26.214Z,5.78
2023-02-13T09:23:35.462Z,5.15
2023-02-13T09:24:38.117Z,5.30
2023-02-13T09:25:40.725Z,5.30
2023-02-13T09:26:43.287Z,6.97
2023-02-13T09:27:45.839Z,5.35
2023-02-13T09:28:48.660Z,4.78
2023-02-13T09:29:51.283Z,5.18
2023-02-13T09:30:53.910Z,5.60
2023-02-13T09:31:56.612Z,5.35
2023-02-13T09:32:59.078Z,4.85
2023-02-13T09:34:01.664Z,5.38
2023-02-13T09:35:06.684Z,4.70
2023-02-13T09:36:12.158Z,4.85
2023-02-13T09:37:14.595Z,4.93
2023-02-13T09:38:17.471Z,4.30
2023-02-13T09:39:20.156Z,5.22
2023-02-13T09:40:29.747Z,4.85
2023-02-13T09:41:38.248Z,4.43
2023-02-13T09:42:40.773Z,4.40
2023-02-13T09:44:00.484Z,5.13
2023-02-13T09:45:05.201Z,5.32
2023-02-13T09:46:22.489Z,4.28
2023-02-13T09:47:28.605Z,5.35
2023-02-13T09:48:34.880Z,4.75
2023-02-13T09:49:40.466Z,5.03
2023-02-13T09:50:43.001Z,4.63
2023-02-13T09:51:47.717Z,5.45
2023-02-13T09:52:52.296Z,5.15
2023-02-13T09:54:16.237Z,5.95
2023-02-13T09:55:24.528Z,5.00
2023-02-13T09:56:42.080Z,6.07
2023-02-13T09:57:49.543Z,4.90
2023-02-13T09:59:03.682Z,4.90
2023-02-13T10:00:16.732Z,5.57
2023-02-13T10:01:25.920Z,5.38
2023-02-13T10:02:37.043Z,5.22
2023-02-13T10:03:59.835Z,5.20
2023-02-13T10:05:21.360Z,5.15
2023-02-13T10:06:33.737Z,5.95
2023-02-13T10:07:42.479Z,5.07
2023-02-13T10:09:03.859Z,5.22
2023-02-13T10:10:24.867Z,5.93
2023-02-13T10:13:17.756Z,5.15
2023-02-13T10:14:35.801Z,5.30
2023-02-13T10:15:49.611Z,6.15
2023-02-13T10:17:15.228Z,5.50
2023-02-13T10:18:21.937Z,5.60
2023-02-13T10:19:48.039Z,5.97
2023-02-13T10:20:56.048Z,5.63
2023-02-13T10:22:00.869Z,5.63
2023-02-13T10:23:20.404Z,6.57
2023-02-13T10:24:31.384Z,5.18
2023-02-13T10:26:06.382Z,6.03
2023-02-13T10:27:32.879Z,5.97
2023-02-13T10:28:39.190Z,7.22
2023-02-13T10:30:05.167Z,6.03
2023-02-13T10:31:12.613Z,6.80
2023-02-13T10:32:17.716Z,7.45
2023-02-13T10:33:24.990Z,6.78
2023-02-13T10:34:29.002Z,7.05
2023-02-13T10:35:31.878Z,6.85
2023-02-13T10:36:36.686Z,6.20
2023-02-13T10:37:39.538Z,5.82
2023-02-13T10:38:46.631Z,6.82
2023-02-13T10:39:51.084Z,7.07
2023-02-13T10:41:05.925Z,7.10
2023-02-13T10:42:36.636Z,6.38
2023-02-13T10:43:52.865Z,7.63
2023-02-13T10:45:04.644Z,6.30
2023-02-13T10:46:22.373Z,6.55
2023-02-13T10:47:27.836Z,6.40
2023-02-13T10:48:39.399Z,6.35
2023-02-13T10:49:44.870Z,6.22
2023-02-13T10:51:04.843Z,6.25
2023-02-13T10:52:41.716Z,6.90
2023-02-13T10:53:55.956Z,6.57
2023-02-13T10:55:10.101Z,7.07
2023-02-13T10:56:31.263Z,7.22
2023-02-13T10:57:54.766Z,6.80
2023-02-13T10:59:11.742Z,6.38
2023-02-13T11:00:22.790Z,6.50
2023-02-13T11:01:40.294Z,6.85
2023-02-13T11:02:42.964Z,7.20
2023-02-13T11:03:48.040Z,6.88
2023-02-13T11:04:53.473Z,7.78
2023-02-13T11:05:57.783Z,7.30
2023-02-13T11:07:03.323Z,7.15
2023-02-13T11:08:22.008Z,6.70
2023-02-13T11:09:24.995Z,6.05
2023-02-13T11:10:27.700Z,6.95
2023-02-13T11:11:35.812Z,7.28
2023-02-13T11:12:38.310Z,7.13
2023-02-13T11:13:43.241Z,7.43
2023-02-13T11:15:01.300Z,6.93
2023-02-13T11:16:07.066Z,7.93
2023-02-13T11:17:17.626Z,6.82
2023-02-13T11:18:21.493Z,7.13
2023-02-13T11:19:29.751Z,6.05
2023-02-13T11:20:36.469Z,7.18
2023-02-13T11:21:40.282Z,6.95
2023-02-13T11:22:42.834Z,6.90
2023-02-13T11:23:56.322Z,7.20
2023-02-13T11:25:18.912Z,7.00
2023-02-13T11:26:29.790Z,7.03
2023-02-13T11:27:37.535Z,7.47
2023-02-13T11:28:47.849Z,6.97
2023-02-13T11:29:58.723Z,6.88
2023-02-13T11:31:12.058Z,6.97
2023-02-13T11:32:14.672Z,7.78
2023-02-13T11:33:17.123Z,6.35
2023-02-13T11:34:22.684Z,7.30
2023-02-13T11:35:36.515Z,6.68
2023-02-13T11:36:39.085Z,6.10
2023-02-13T11:37:41.572Z,6.35
2023-02-13T11:38:44.026Z,6.68
2023-02-13T11:39:51.151Z,6.75
2023-02-13T11:41:09.381Z,6.50
2023-02-13T11:42:24.970Z,7.28
2023-02-13T11:43:35.334Z,7.75
2023-02-13T11:44:37.828Z,6.97
2023-02-13T11:45:40.330Z,6.68
2023-02-13T11:46:51.465Z,6.55
2023-02-13T11:47:56.723Z,6.45
2023-02-13T11:49:04.939Z,7.05
2023-02-13T11:50:21.173Z,7.05
2023-02-13T11:51:54.494Z,7.07
2023-02-13T11:52:56.995Z,7.15
2023-02-13T11:54:01.212Z,6.70
2023-02-13T11:55:07.081Z,6.40
2023-02-13T11:56:14.793Z,7.05
2023-02-13T11:57:17.337Z,6.47
2023-02-13T11:58:27.856Z,7.43
2023-02-13T11:59:34.409Z,5.85
2023-02-13T12:00:40.099Z,6.90
2023-02-13T12:01:43.724Z,6.70
2023-02-13T12:02:49.995Z,6.88
2023-02-13T12:04:05.107Z,6.63
2023-02-13T12:05:21.503Z,6.75
2023-02-13T12:06:24.065Z,6.20
2023-02-13T12:07:35.430Z,6.57
2023-02-13T12:08:39.519Z,6.57
2023-02-13T12:09:42.493Z,6.03
2023-02-13T12:10:45.148Z,6.22
2023-02-13T12:11:51.294Z,6.95
2023-02-13T12:13:11.225Z,7.28
2023-02-13T12:14:21.333Z,6.90
2023-02-13T12:15:29.339Z,7.90
2023-02-13T12:16:39.422Z,7.30
2023-02-13T12:17:44.266Z,6.57
2023-02-13T12:18:52.687Z,7.38
2023-02-13T12:19:55.757Z,6.50
2023-02-13T12:21:23.772Z,6.03
2023-02-13T12:22:40.890Z,6.00
2023-02-13T12:23:54.994Z,5.30
2023-02-13T12:25:24.214Z,5.50
2023-02-13T12:26:55.556Z,6.05
2023-02-13T12:28:12.090Z,6.57
2023-02-13T12:29:15.208Z,5.80
2023-02-13T12:30:32.496Z,5.75
2023-02-13T12:31:41.637Z,6.32
2023-02-13T12:33:17.243Z,5.00
2023-02-13T12:34:22.823Z,5.05
2023-02-13T12:35:50.149Z,5.45
2023-02-13T12:37:09.115Z,5.43
2023-02-13T12:38:42.458Z,5.32
2023-02-13T12:40:15.788Z,5.35
2023-02-13T12:41:24.153Z,5.60
2023-02-13T12:42:55.897Z,5.32
2023-02-13T12:44:29.798Z,5.43
2023-02-13T12:46:00.137Z,4.72
2023-02-13T12:47:23.434Z,5.55
2023-02-13T12:48:35.311Z,4.40
2023-02-13T12:50:05.252Z,4.40
2023-02-13T12:51:38.514Z,4.30
2023-02-13T12:52:56.999Z,4.47
2023-02-13T12:54:27.095Z,4.63
2023-02-13T12:55:29.605Z,4.88
2023-02-13T12:57:00.279Z,4.45
2023-02-13T12:58:21.882Z,4.13
2023-02-13T12:59:28.787Z,4.35
2023-02-13T13:00:43.531Z,4.97
2023-02-13T13:01:58.494Z,4.10
2023-02-13T13:03:19.024Z,3.83
2023-02-13T13:05:03.048Z,3.97
2023-02-13T13:06:19.737Z,4.32
2023-02-13T13:07:27.819Z,4.00
2023-02-13T13:08:52.029Z,4.07
2023-02-13T13:10:11.985Z,4.55
2023-02-13T13:11:20.321Z,4.22
2023-02-13T13:13:00.034Z,5.32
2023-02-13T13:14:07.242Z,5.72
2023-02-13T13:15:09.685Z,5.93
2023-02-13T13:16:33.423Z,6.28
2023-02-13T13:17:42.290Z,4.50
2023-02-13T13:18:59.848Z,4.95
2023-02-13T13:20:20.533Z,4.72
2023-02-13T13:21:41.929Z,4.70
2023-02-13T13:22:53.795Z,4.40
2023-02-13T13:24:14.851Z,4.45
2023-02-13T13:25:48.769Z,4.60
2023-02-13T13:26:54.195Z,4.90
2023-02-13T13:28:01.544Z,4.35
2023-02-13T13:29:20.388Z,3.30
2023-02-13T13:30:36.405Z,4.60
2023-02-13T13:31:39.781Z,3.92
2023-02-13T13:32:43.557Z,3.53
2023-02-13T13:33:47.059Z,4.22
2023-02-13T13:34:49.812Z,4.03
2023-02-13T13:36:01.086Z,4.20
2023-02-13T13:37:11.951Z,3.92
2023-02-13T13:38:38.211Z,3.30
2023-02-13T13:39:40.698Z,3.15
2023-02-13T13:40:57.762Z,2.92
2023-02-13T13:42:02.406Z,3.22
2023-02-13T13:43:50.709Z,3.65
2023-02-13T13:45:01.941Z,3.63
2023-02-13T13:46:16.887Z,3.78
2023-02-13T13:47:52.599Z,3.85
2023-02-13T13:49:21.097Z,3.80
2023-02-13T13:50:25.943Z,4.20
2023-02-13T13:51:28.638Z,4.15
2023-02-13T13:52:33.050Z,3.95
2023-02-13T13:53:36.100Z,4.50
2023-02-13T13:54:38.636Z,3.97
2023-02-13T13:56:00.836Z,3.88
2023-02-13T13:57:03.898Z,4.18
2023-02-13T13:58:19.215Z,4.53
2023-02-13T13:59:33.323Z,4.72
2023-02-13T14:00:36.050Z,4.00
2023-02-13T14:01:38.851Z,3.75
2023-02-13T14:02:47.151Z,3.97
2023-02-13T14:03:54.489Z,4.00
2023-02-13T14:05:36.659Z,4.05
2023-02-13T14:06:45.193Z,4.75
2023-02-13T14:07:50.960Z,4.20
2023-02-13T14:08:59.788Z,4.25
2023-02-13T14:10:02.321Z,3.60
2023-02-13T14:11:04.953Z,3.72
2023-02-13T14:12:36.701Z,3.35
2023-02-13T14:13:40.781Z,3.67
2023-02-13T14:14:44.080Z,3.92
2023-02-13T14:15:51.841Z,4.07
2023-02-13T14:17:04.693Z,3.65
2023-02-13T14:18:12.956Z,4.00
2023-02-13T14:19:35.845Z,3.90
2023-02-13T14:20:44.411Z,4.70
2023-02-13T14:21:46.955Z,3.75
2023-02-13T14:22:49.593Z,3.28
2023-02-13T14:23:53.636Z,3.60
2023-02-13T14:24:58.361Z,3.78
2023-02-13T14:26:32.928Z,3.80
2023-02-13T14:27:37.515Z,3.97
2023-02-13T14:29:01.512Z,3.50
2023-02-13T14:30:07.223Z,2.97
2023-02-13T14:31:27.428Z,3.70
2023-02-13T14:32:34.038Z,3.50
2023-02-13T14:33:36.552Z,4.07
2023-02-13T14:34:40.012Z,3.67
2023-02-13T14:35:43.041Z,3.65
2023-02-13T14:36:47.338Z,3.83
2023-02-13T14:37:58.473Z,3.92
2023-02-13T14:39:23.148Z,4.20
2023-02-13T14:40:40.883Z,4.20
2023-02-13T14:41:54.074Z,3.97
2023-02-13T14:43:00.590Z,3.95
2023-02-13T14:44:03.458Z,4.53
2023-02-13T14:45:22.841Z,4.10
2023-02-13T14:46:41.228Z,4.30
2023-02-13T14:47:55.559Z,3.95
2023-02-13T14:49:02.278Z,4.68
2023-02-13T14:50:05.937Z,5.05
2023-02-13T14:51:43.386Z,5.22
2023-02-13T14:52:47.352Z,5.80
2023-02-13T14:53:56.748Z,7.70
2023-02-13T14:55:05.913Z,7.32
2023-02-13T14:56:13.650Z,6.85
2023-02-13T14:57:26.340Z,5.30
2023-02-13T14:58:33.633Z,6.35
2023-02-13T14:59:38.927Z,5.97
2023-02-13T15:00:43.723Z,6.28
2023-02-13T15:01:54.475Z,6.10
2023-02-13T15:04:13.440Z,5.50
2023-02-13T15:05:21.036Z,6.38
2023-02-13T15:06:27.500Z,5.82
2023-02-13T15:07:44.348Z,6.32
2023-02-13T15:08:49.542Z,5.90
2023-02-13T15:10:02.225Z,5.57
2023-02-13T15:11:04.815Z,6.00
2023-02-13T15:12:37.401Z,5.47
2023-02-13T15:13:41.069Z,5.63
2023-02-13T15:14:43.697Z,6.05
2023-02-13T15:16:11.632Z,5.68
2023-02-13T15:17:20.516Z,4.47
2023-02-13T15:18:27.013Z,4.50